createdAt,value
2022-08-18T00:01:01.697Z,12.23
2022-08-18T00:06:28.445Z,9.70
2022-08-18T00:11:51.401Z,11.75
2022-08-18T00:17:14.501Z,13.25
2022-08-18T00:22:37.266Z,13.70
2022-08-18T00:28:02.136Z,10.02
2022-08-18T00:33:24.702Z,10.32
2022-08-18T00:38:46.989Z,10.38
2022-08-18T00:44:09.683Z,10.93
2022-08-18T00:49:32.032Z,11.27
2022-08-18T00:54:55.573Z,10.05
2022-08-18T01:00:18.270Z,10.95
2022-08-18T01:05:49.646Z,13.40
2022-08-18T01:11:11.873Z,11.80
2022-08-18T01:16:56.922Z,14.35
2022-08-18T01:22:27.581Z,10.68
2022-08-18T01:27:51.177Z,14.18
2022-08-18T01:33:14.627Z,9.20
2022-08-18T01:38:38.063Z,13.18
2022-08-18T01:44:01.680Z,10.98
2022-08-18T01:49:24.277Z,11.98
2022-08-18T01:54:48.641Z,10.23
2022-08-18T02:00:14.454Z,10.27
2022-08-18T02:05:43.402Z,12.07
2022-08-18T02:11:07.642Z,12.25
2022-08-18T02:16:30.255Z,10.95
2022-08-18T02:21:53.379Z,12.20
2022-08-18T02:27:16.910Z,10.55
2022-08-18T02:32:39.456Z,14.43
2022-08-18T02:38:03.929Z,12.48
2022-08-18T02:43:27.450Z,11.15
2022-08-18T02:48:52.310Z,13.55
2022-08-18T02:54:14.663Z,13.75
2022-08-18T02:59:39.332Z,12.23
2022-08-18T03:05:01.968Z,12.50
2022-08-18T03:10:31.745Z,12.65
2022-08-18T03:15:57.343Z,14.52
2022-08-18T03:21:23.292Z,14.80
2022-08-18T03:26:46.005Z,11.88
2022-08-18T03:32:08.856Z,12.88
2022-08-18T03:37:31.234Z,15.38
2022-08-18T03:42:53.870Z,11.95
2022-08-18T03:48:16.734Z,11.15
2022-08-18T03:53:39.494Z,12.05
2022-08-18T03:59:10.177Z,17.73
2022-08-18T04:04:33.764Z,12.73
2022-08-18T04:09:57.587Z,14.38
2022-08-18T04:15:20.039Z,16.20
2022-08-18T04:20:56.241Z,13.68
2022-08-18T04:26:22.645Z,10.95
2022-08-18T04:31:45.287Z,13.45
2022-08-18T04:37:09.771Z,15.00
2022-08-18T04:42:32.599Z,13.25
2022-08-18T04:47:55.923Z,14.98
2022-08-18T04:53:37.086Z,19.38
2022-08-18T04:59:06.524Z,14.93
2022-08-18T05:04:30.567Z,14.45
2022-08-18T05:09:55.121Z,15.35
2022-08-18T05:15:19.091Z,16.42
2022-08-18T05:20:41.473Z,12.48
2022-08-18T05:26:05.942Z,15.60
2022-08-18T05:31:29.309Z,17.25
2022-08-18T05:36:58.474Z,15.30
2022-08-18T05:42:23.198Z,14.80
2022-08-18T05:47:45.568Z,13.98
2022-08-18T05:53:14.559Z,15.18
2022-08-18T05:58:46.584Z,13.00
2022-08-18T06:04:31.985Z,15.00
2022-08-18T06:09:55.387Z,14.57
2022-08-18T06:15:36.102Z,15.95
2022-08-18T06:21:25.651Z,19.65
2022-08-18T06:27:23.435Z,16.65
2022-08-18T06:32:56.833Z,16.35
2022-08-18T06:38:45.476Z,20.40
2022-08-18T06:45:03.782Z,16.48
2022-08-18T06:50:32.941Z,14.63
2022-08-18T06:55:56.512Z,15.38
2022-08-18T07:01:19.669Z,19.30
2022-08-18T07:06:42.086Z,15.25
2022-08-18T07:12:09.943Z,17.27
2022-08-18T07:17:42.826Z,16.08
2022-08-18T07:23:08.217Z,15.90
2022-08-18T07:28:40.233Z,16.83
2022-08-18T07:34:22.822Z,17.88
2022-08-18T07:39:57.361Z,23.20
2022-08-18T07:45:24.060Z,17.75
2022-08-18T07:51:17.245Z,16.50
2022-08-18T07:56:40.005Z,20.67
2022-08-18T08:02:36.660Z,22.08
2022-08-18T08:08:06.318Z,22.92
2022-08-18T08:13:55.767Z,19.65
2022-08-18T08:19:59.493Z,17.88
2022-08-18T08:25:46.900Z,13.93
2022-08-18T08:31:42.451Z,17.92
2022-08-18T08:37:10.812Z,14.10
2022-08-18T08:42:45.650Z,12.57
2022-08-18T08:48:17.749Z,22.25
2022-08-18T08:53:48.218Z,16.48
2022-08-18T08:59:13.398Z,14.82
2022-08-18T09:05:09.475Z,15.05
2022-08-18T09:10:53.988Z,16.60
2022-08-18T09:16:41.018Z,12.48
2022-08-18T09:22:22.633Z,18.45
2022-08-18T09:28:10.456Z,13.48
2022-08-18T09:33:40.601Z,15.57
2022-08-18T09:39:32.259Z,9.45
2022-08-18T09:44:55.950Z,12.90
2022-08-18T09:50:28.520Z,10.15
2022-08-18T09:56:00.790Z,11.65
2022-08-18T10:01:30.392Z,8.82
2022-08-18T10:06:53.124Z,10.25
2022-08-18T10:12:23.874Z,8.13
2022-08-18T10:18:23.846Z,8.38
2022-08-18T10:24:02.772Z,10.70
2022-08-18T10:29:46.930Z,8.23
2022-08-18T10:35:33.871Z,8.77
2022-08-18T10:41:15.345Z,8.77
2022-08-18T10:52:35.712Z,5.65
2022-08-18T10:58:24.945Z,7.10
2022-08-18T11:04:17.274Z,5.57
2022-08-18T11:15:39.975Z,7.10
2022-08-18T11:21:33.684Z,6.75
2022-08-18T11:27:16.946Z,5.95
2022-08-18T11:32:51.692Z,7.72
2022-08-18T11:38:20.810Z,6.65
2022-08-18T11:43:48.761Z,7.93
2022-08-18T11:49:28.733Z,7.20
2022-08-18T12:00:42.922Z,11.45
2022-08-18T12:12:24.397Z,8.60
2022-08-18T12:17:52.346Z,6.28
2022-08-18T12:23:15.994Z,6.00
2022-08-18T12:28:39.570Z,6.82
2022-08-18T12:34:01.984Z,10.52
2022-08-18T12:39:24.991Z,14.30
2022-08-18T12:44:48.203Z,11.02
2022-08-18T12:50:10.620Z,16.00
2022-08-18T12:55:37.645Z,18.15
2022-08-18T13:01:05.967Z,12.35
2022-08-18T13:06:28.420Z,11.10
2022-08-18T13:11:51.965Z,13.85
2022-08-18T13:17:32.803Z,15.15
2022-08-18T13:22:56.538Z,11.18
2022-08-18T13:28:19.626Z,15.15
2022-08-18T13:33:58.211Z,16.35
2022-08-18T13:39:24.531Z,19.35
2022-08-18T13:44:55.059Z,15.75
2022-08-18T13:50:19.673Z,14.70
2022-08-18T13:55:42.122Z,13.43
2022-08-18T14:01:42.061Z,14.10
2022-08-18T14:06:57.304Z,20.73
2022-08-18T14:12:26.987Z,16.60
2022-08-18T14:17:52.286Z,13.40
2022-08-18T14:23:35.418Z,14.52
2022-08-18T14:28:59.945Z,14.35
2022-08-18T14:34:28.490Z,14.65
2022-08-18T14:39:53.833Z,12.55
2022-08-18T14:45:26.514Z,10.40
2022-08-18T14:50:56.395Z,10.73
2022-08-18T14:56:19.666Z,14.88
2022-08-18T15:01:44.569Z,12.93
2022-08-18T15:07:10.087Z,9.55
2022-08-18T15:12:35.686Z,11.05
2022-08-18T15:17:58.323Z,9.75
2022-08-18T15:23:39.808Z,12.35
2022-08-18T15:29:07.973Z,9.77
2022-08-18T15:34:31.034Z,11.40
2022-08-18T15:40:30.784Z,11.18
2022-08-18T15:45:59.603Z,19.98
2022-08-18T15:51:22.119Z,30.02
2022-08-18T15:56:44.645Z,22.73
2022-08-18T16:02:20.332Z,15.27
2022-08-18T16:07:47.692Z,19.00
2022-08-18T16:13:10.441Z,15.23
2022-08-18T16:18:33.046Z,26.92
2022-08-18T16:23:55.859Z,16.85
2022-08-18T16:29:18.378Z,27.38
2022-08-18T16:34:41.539Z,22.30
2022-08-18T16:40:04.996Z,19.48
2022-08-18T16:45:28.422Z,17.52
2022-08-18T16:50:51.439Z,20.63
2022-08-18T16:56:19.486Z,14.02
2022-08-18T17:02:01.861Z,13.63
2022-08-18T17:07:25.988Z,15.55
2022-08-18T17:12:48.422Z,20.40
2022-08-18T17:18:11.205Z,17.80
2022-08-18T17:23:34.309Z,17.52
2022-08-18T17:29:43.676Z,13.27
2022-08-18T17:35:17.795Z,16.52
2022-08-18T17:40:48.060Z,15.18
2022-08-18T17:46:18.807Z,18.38
2022-08-18T17:51:55.194Z,14.27
2022-08-18T17:57:29.860Z,13.50
2022-08-18T18:02:52.497Z,13.73
2022-08-18T18:08:15.576Z,13.98
2022-08-18T18:13:40.201Z,14.57
2022-08-18T18:19:13.263Z,12.52
2022-08-18T18:24:38.187Z,15.73
2022-08-18T18:30:06.197Z,13.60
2022-08-18T18:35:34.169Z,13.20
2022-08-18T18:41:22.681Z,14.15
2022-08-18T18:47:21.485Z,17.38
2022-08-18T18:53:22.744Z,15.93
2022-08-18T18:59:16.625Z,11.25
2022-08-18T19:05:06.947Z,11.85
2022-08-18T19:10:49.656Z,12.57
2022-08-18T19:16:32.636Z,12.00
2022-08-18T19:22:06.928Z,15.63
2022-08-18T19:27:40.221Z,13.35
2022-08-18T19:33:05.838Z,11.88
2022-08-18T19:38:42.504Z,12.73
2022-08-18T19:44:29.987Z,12.50
2022-08-18T19:50:14.957Z,12.52
2022-08-18T19:56:05.437Z,10.73
2022-08-18T20:01:52.160Z,14.68
2022-08-18T20:07:43.428Z,12.45
2022-08-18T20:13:33.887Z,11.90
2022-08-18T20:18:58.393Z,13.02
2022-08-18T20:24:54.306Z,11.50
2022-08-18T20:30:19.810Z,13.98
2022-08-18T20:36:12.214Z,14.60
2022-08-18T20:41:44.196Z,13.70
2022-08-18T20:47:11.752Z,15.25
2022-08-18T20:52:43.197Z,15.60
2022-08-18T20:58:10.823Z,12.65
2022-08-18T21:03:42.122Z,13.32
2022-08-18T21:09:05.262Z,11.63
2022-08-18T21:14:30.666Z,13.65
2022-08-18T21:19:59.834Z,14.27
2022-08-18T21:25:24.019Z,13.15
2022-08-18T21:31:42.676Z,12.25
2022-08-18T21:36:54.570Z,12.90
2022-08-18T21:42:21.008Z,12.88
2022-08-18T21:47:54.227Z,14.85
2022-08-18T21:53:25.424Z,14.05
2022-08-18T21:59:09.772Z,14.20
2022-08-18T22:04:37.559Z,11.82
2022-08-18T22:10:58.664Z,12.27
2022-08-18T22:16:30.268Z,11.73
2022-08-18T22:22:24.631Z,12.43
2022-08-18T22:27:49.846Z,16.13
2022-08-18T22:33:13.014Z,13.25
2022-08-18T22:38:35.613Z,9.65
2022-08-18T22:43:58.505Z,11.70
2022-08-18T22:49:22.162Z,16.80
2022-08-18T22:54:44.546Z,10.00
2022-08-18T23:00:26.412Z,11.60
2022-08-18T23:05:48.946Z,12.77
2022-08-18T23:11:12.770Z,11.30
2022-08-18T23:16:35.717Z,15.38
2022-08-18T23:22:02.422Z,15.40
2022-08-18T23:27:24.669Z,10.07
2022-08-18T23:32:47.771Z,12.00
2022-08-18T23:38:11.315Z,12.82
2022-08-18T23:43:36.249Z,10.35
2022-08-18T23:49:01.023Z,10.73
2022-08-18T23:54:34.765Z,13.13
2022-08-18T23:59:57.013Z,12.02
